Time;durP1;ratioP1;P1;durP2;ratioP2;P2;SDS_P1;SDS_P2;PMS_P1;PMS_P2;Temp;Humidity;BMP_temperature;BMP_pressure;BME280_temperature;BME280_humidity;BME280_pressure;Samples;Min_cycle;Max_cycle;Signal;HPM_P1;HPM_P2
2022/08/12 00:44:15;;;;;;;3.15;2.67;;;15.90;56.20;;;;;;5144493;27;20313;-86
2022/08/12 00:46:49;;;;;;;4.45;2.70;;;15.90;57.20;;;;;;5155669;27;20203;-86
2022/08/12 00:49:18;;;;;;;5.05;2.90;;;15.80;56.70;;;;;;5150110;27;20200;-87
2022/08/12 00:54:32;;;;;;;3.00;2.75;;;15.90;57.00;;;;;;5144764;27;20660;-87
2022/08/12 00:57:03;;;;;;;5.38;2.63;;;15.90;57.10;;;;;;5145782;27;20202;-87
2022/08/12 00:59:31;;;;;;;5.93;2.78;;;15.90;57.40;;;;;;5146007;27;20652;-87
2022/08/12 01:02:01;;;;;;;4.38;2.85;;;15.90;57.40;;;;;;5131530;27;20195;-87
2022/08/12 01:12:45;;;;;;;4.38;2.78;;;15.90;57.20;;;;;;5131720;27;20583;-87
2022/08/12 01:15:14;;;;;;;6.38;2.70;;;15.80;57.30;;;;;;5137083;27;20199;-87
2022/08/12 01:17:43;;;;;;;5.03;2.80;;;15.80;58.20;;;;;;5137480;27;20210;-87
2022/08/12 01:20:19;;;;;;;4.03;3.05;;;15.80;58.50;;;;;;5131147;27;20194;-87
2022/08/12 01:23:11;;;;;;;4.65;3.08;;;15.70;58.60;;;;;;5130408;27;20231;-87
2022/08/12 01:25:44;;;;;;;3.80;2.90;;;15.70;58.00;;;;;;5134443;27;20205;-87
2022/08/12 01:28:12;;;;;;;4.72;2.80;;;15.70;59.20;;;;;;5135688;27;20206;-87
2022/08/12 01:30:42;;;;;;;4.85;2.50;;;15.70;58.90;;;;;;5137599;27;20260;-86
2022/08/12 01:33:14;;;;;;;3.47;2.90;;;15.60;58.60;;;;;;5135782;27;20230;-87
2022/08/12 01:35:47;;;;;;;3.00;2.70;;;15.60;58.60;;;;;;5136495;27;20199;-87
2022/08/12 01:38:19;;;;;;;8.50;2.78;;;15.70;58.70;;;;;;5137253;27;20199;-87
2022/08/12 01:40:49;;;;;;;4.00;2.83;;;15.60;58.60;;;;;;5148261;27;20734;-87
2022/08/12 01:43:20;;;;;;;6.55;3.25;;;15.70;58.80;;;;;;5126130;27;20227;-86
2022/08/12 01:45:58;;;;;;;3.33;2.55;;;15.60;58.70;;;;;;5146958;27;20212;-87
2022/08/12 01:48:34;;;;;;;4.18;2.80;;;15.70;58.50;;;;;;5132083;27;20281;-87
2022/08/12 01:51:09;;;;;;;3.30;3.00;;;15.70;58.30;;;;;;5149729;27;20199;-87
2022/08/12 01:53:50;;;;;;;7.15;3.13;;;15.60;58.50;;;;;;5147276;27;20202;-87
2022/08/12 01:56:21;;;;;;;4.10;2.92;;;15.70;57.70;;;;;;5139856;27;20196;-87
2022/08/12 02:01:46;;;;;;;5.95;3.38;;;15.70;57.40;;;;;;5098072;28;20205;-87
2022/08/12 02:13:00;;;;;;;4.18;2.70;;;15.60;58.30;;;;;;5100174;28;20254;-87
2022/08/12 02:15:36;;;;;;;5.97;3.13;;;15.50;59.10;;;;;;5099033;28;20204;-87
2022/08/12 02:18:14;;;;;;;6.40;2.85;;;15.50;59.30;;;;;;5102856;28;20199;-87
2022/08/12 02:20:49;;;;;;;4.63;2.75;;;15.50;59.70;;;;;;5097485;28;20200;-87
2022/08/12 02:23:18;;;;;;;4.47;3.08;;;15.50;58.80;;;;;;5100159;28;20277;-87
2022/08/12 02:25:46;;;;;;;4.95;3.28;;;15.50;59.10;;;;;;5096949;28;20265;-87
2022/08/12 02:28:15;;;;;;;4.20;3.13;;;15.50;59.80;;;;;;5100529;28;20685;-87
2022/08/12 02:30:42;;;;;;;6.80;2.92;;;15.40;59.20;;;;;;5096836;28;20214;-86
2022/08/12 02:33:20;;;;;;;6.53;3.20;;;15.40;59.80;;;;;;5099288;28;20215;-87
2022/08/12 02:35:50;;;;;;;4.90;3.05;;;15.40;59.70;;;;;;5096077;28;20204;-87
2022/08/12 02:38:18;;;;;;;6.72;2.90;;;15.40;59.70;;;;;;5129167;27;20203;-86
2022/08/12 02:40:51;;;;;;;7.43;3.08;;;15.40;59.90;;;;;;5131622;27;20209;-86
2022/08/12 02:43:27;;;;;;;4.70;3.00;;;15.30;59.60;;;;;;5144282;27;20224;-86
2022/08/12 02:46:00;;;;;;;6.90;3.20;;;15.30;60.00;;;;;;5135964;27;20199;-87
2022/08/12 02:48:40;;;;;;;7.43;3.33;;;15.30;60.70;;;;;;5145562;27;20199;-87
2022/08/12 02:51:13;;;;;;;4.05;3.03;;;15.30;61.20;;;;;;5135014;27;20199;-86
2022/08/12 02:53:41;;;;;;;6.15;3.28;;;15.30;63.50;;;;;;5146680;27;20288;-86
2022/08/12 02:56:07;;;;;;;4.03;3.40;;;15.20;62.80;;;;;;5148568;27;20214;-86
2022/08/12 02:58:36;;;;;;;6.55;3.10;;;15.20;62.90;;;;;;5141149;27;20641;-86
2022/08/12 03:01:08;;;;;;;4.15;3.10;;;15.20;63.00;;;;;;5136959;27;20210;-86
2022/08/12 03:03:36;;;;;;;6.90;3.40;;;15.10;64.10;;;;;;5138122;27;20229;-87
2022/08/12 03:06:06;;;;;;;4.82;3.40;;;15.10;66.60;;;;;;5139674;27;20203;-87
2022/08/12 03:08:41;;;;;;;5.38;3.47;;;15.10;67.70;;;;;;5137275;27;20556;-87
2022/08/12 03:11:16;;;;;;;3.55;3.20;;;15.10;66.10;;;;;;5141488;27;20737;-87
2022/08/12 03:13:50;;;;;;;5.45;3.20;;;15.10;66.10;;;;;;5134247;27;20206;-87
2022/08/12 03:16:18;;;;;;;4.53;3.28;;;15.10;65.80;;;;;;5143933;27;20208;-86
2022/08/12 03:18:45;;;;;;;5.22;3.60;;;15.10;66.30;;;;;;5139822;27;20203;-87
2022/08/12 03:21:15;;;;;;;3.60;3.30;;;15.10;68.70;;;;;;5139646;27;20214;-87
2022/08/12 03:23:44;;;;;;;4.85;3.40;;;15.10;65.80;;;;;;5127135;27;20218;-87
2022/08/12 03:26:12;;;;;;;4.43;3.60;;;15.00;66.40;;;;;;5127298;27;20551;-87
2022/08/12 03:28:52;;;;;;;4.20;3.75;;;15.00;66.70;;;;;;5130924;27;20191;-87
2022/08/12 03:31:23;;;;;;;5.35;3.53;;;15.00;66.40;;;;;;5127465;27;20191;-86
2022/08/12 03:33:50;;;;;;;6.40;3.38;;;15.00;65.80;;;;;;5135022;27;20248;-87
2022/08/12 03:36:20;;;;;;;6.00;3.67;;;14.90;66.00;;;;;;5135901;27;20570;-87
2022/08/12 03:39:14;;;;;;;5.18;3.50;;;14.90;67.00;;;;;;5134855;27;20192;-87
2022/08/12 03:41:52;;;;;;;4.90;3.47;;;15.00;66.50;;;;;;5135042;27;20219;-87
2022/08/12 04:01:07;;;;;;;4.05;3.20;;;14.80;66.90;;;;;;5147514;27;20202;-87
2022/08/12 04:03:54;;;;;;;5.15;3.78;;;14.90;65.50;;;;;;5150061;27;20229;-87
2022/08/12 04:06:25;;;;;;;5.25;3.72;;;14.90;66.50;;;;;;5121587;27;20207;-87
2022/08/12 04:08:56;;;;;;;5.40;3.50;;;14.90;68.60;;;;;;5125444;27;20230;-87
2022/08/12 04:14:10;;;;;;;4.75;3.50;;;14.90;67.30;;;;;;5134645;27;20204;-87
2022/08/12 04:16:38;;;;;;;4.90;3.70;;;14.70;68.90;;;;;;5120228;27;20192;-86
2022/08/12 04:19:08;;;;;;;4.40;4.00;;;14.60;70.10;;;;;;5123834;27;20199;-87
2022/08/12 04:21:39;;;;;;;7.82;3.58;;;14.40;72.00;;;;;;5135446;27;20191;-87
2022/08/12 04:24:06;;;;;;;6.68;3.80;;;14.40;73.50;;;;;;5135068;27;20234;-87
2022/08/12 04:26:34;;;;;;;7.82;3.70;;;14.30;75.40;;;;;;5135051;27;20646;-86
2022/08/12 04:29:02;;;;;;;4.32;3.80;;;14.30;77.70;;;;;;5116686;27;20647;-87
2022/08/12 04:31:33;;;;;;;5.78;3.60;;;14.30;76.80;;;;;;5128139;27;20195;-86
2022/08/12 04:34:01;;;;;;;4.45;3.05;;;14.30;76.80;;;;;;5133185;27;20199;-86
2022/08/12 04:36:30;;;;;;;5.43;4.05;;;14.30;77.40;;;;;;5122261;27;20286;-87
2022/08/12 04:38:58;;;;;;;5.00;3.80;;;14.40;76.90;;;;;;5135223;27;20199;-85
2022/08/12 04:41:26;;;;;;;5.03;3.70;;;14.40;76.80;;;;;;5133628;27;20206;-85
2022/08/12 04:43:54;;;;;;;6.03;4.20;;;14.40;76.80;;;;;;5133369;27;20280;-86
2022/08/12 04:46:21;;;;;;;4.30;3.65;;;14.40;76.80;;;;;;5124905;27;20293;-87
2022/08/12 04:48:48;;;;;;;7.38;3.90;;;14.40;76.80;;;;;;5134224;27;20198;-86
2022/08/12 04:51:15;;;;;;;4.45;3.53;;;14.50;76.90;;;;;;5122332;27;20191;-87
2022/08/12 04:53:45;;;;;;;5.15;4.00;;;14.50;76.90;;;;;;5125445;27;20196;-86
2022/08/12 04:56:13;;;;;;;5.57;3.90;;;14.60;77.00;;;;;;5124233;27;20198;-87
2022/08/12 04:58:40;;;;;;;4.10;3.70;;;14.70;77.10;;;;;;5138852;27;20208;-87
2022/08/12 05:01:08;;;;;;;4.65;3.60;;;14.70;76.80;;;;;;5141892;27;20215;-87
2022/08/12 05:03:35;;;;;;;6.18;3.90;;;14.80;76.00;;;;;;5146428;27;20228;-87
2022/08/12 05:06:03;;;;;;;3.83;3.05;;;14.80;75.40;;;;;;5144292;27;20561;-87
2022/08/12 05:08:31;;;;;;;3.95;3.55;;;14.90;75.50;;;;;;5147940;27;20233;-87
2022/08/12 05:11:00;;;;;;;6.38;3.58;;;14.90;75.90;;;;;;5154726;27;20237;-87
2022/08/12 05:13:31;;;;;;;5.55;3.90;;;14.90;75.60;;;;;;5149255;27;20286;-87
2022/08/12 05:15:58;;;;;;;6.53;3.50;;;14.90;75.40;;;;;;5155148;27;20209;-87
2022/08/12 05:18:25;;;;;;;4.10;3.70;;;15.00;75.40;;;;;;5151018;27;20234;-87
2022/08/12 05:20:52;;;;;;;6.88;3.70;;;15.10;72.70;;;;;;5140432;27;20199;-87
2022/08/12 05:23:21;;;;;;;5.65;3.88;;;15.10;70.40;;;;;;5148721;27;20204;-87
2022/08/12 05:25:49;;;;;;;6.25;3.95;;;15.20;69.70;;;;;;5148163;27;20285;-87
2022/08/12 05:28:18;;;;;;;6.95;4.07;;;15.30;69.90;;;;;;5152147;27;20214;-87
2022/08/12 05:30:46;;;;;;;4.47;3.67;;;15.30;69.60;;;;;;5147374;27;20197;-87
2022/08/12 05:33:14;;;;;;;6.80;3.85;;;15.40;68.00;;;;;;5134195;27;20285;-87
2022/08/12 05:35:44;;;;;;;9.05;4.18;;;15.50;65.80;;;;;;5139585;27;20197;-87
2022/08/12 05:40:57;;;;;;;6.10;3.60;;;15.70;65.50;;;;;;5140512;27;20236;-87
2022/08/12 05:43:26;;;;;;;8.55;3.70;;;15.70;66.30;;;;;;5136600;27;20204;-87
2022/08/12 05:45:53;;;;;;;4.85;3.50;;;15.80;59.50;;;;;;5137431;27;20203;-87
2022/08/12 05:48:20;;;;;;;5.43;3.22;;;15.90;58.40;;;;;;5145079;27;20215;-87
2022/08/12 05:50:48;;;;;;;3.58;3.20;;;16.00;58.90;;;;;;5145187;27;20202;-87
2022/08/12 05:53:15;;;;;;;6.10;3.85;;;16.00;58.40;;;;;;5146140;27;20202;-87
2022/08/12 05:55:42;;;;;;;4.32;3.60;;;16.10;59.00;;;;;;5148405;27;20195;-87
2022/08/12 05:58:09;;;;;;;4.53;3.60;;;16.10;58.30;;;;;;5142198;27;20198;-86
2022/08/12 06:00:37;;;;;;;10.63;3.72;;;16.30;54.70;;;;;;5135236;27;20207;-86
2022/08/12 06:03:06;;;;;;;4.32;3.40;;;16.40;54.70;;;;;;5143665;27;20210;-87
2022/08/12 06:05:34;;;;;;;7.18;3.70;;;16.40;55.30;;;;;;5147878;27;20226;-87
2022/08/12 06:08:04;;;;;;;6.03;3.55;;;16.50;55.20;;;;;;5132504;27;20199;-87
2022/08/12 06:10:37;;;;;;;5.13;3.00;;;16.60;54.40;;;;;;5143859;27;20194;-87
2022/08/12 06:13:06;;;;;;;5.60;3.80;;;16.90;52.70;;;;;;5144201;27;20649;-87
2022/08/12 06:15:36;;;;;;;7.65;3.78;;;17.10;50.90;;;;;;5148686;27;20235;-87
2022/08/12 06:18:06;;;;;;;8.75;3.53;;;17.10;49.30;;;;;;5152817;27;20202;-87
2022/08/12 06:20:33;;;;;;;7.30;3.83;;;17.10;49.90;;;;;;5139267;27;20195;-86
2022/08/12 06:23:00;;;;;;;5.80;3.80;;;17.20;48.80;;;;;;5150500;27;20649;-87
2022/08/12 06:25:28;;;;;;;4.40;3.30;;;17.30;48.60;;;;;;5144702;27;20223;-86
2022/08/12 06:27:57;;;;;;;4.22;3.28;;;17.30;47.50;;;;;;5149803;27;20206;-87
2022/08/12 06:30:25;;;;;;;6.72;3.55;;;17.30;48.10;;;;;;5145689;27;20200;-87
2022/08/12 06:32:55;;;;;;;7.13;3.30;;;17.40;48.90;;;;;;5147738;27;20198;-86
2022/08/12 06:35:25;;;;;;;5.50;3.17;;;17.50;48.20;;;;;;5146335;27;20221;-86
2022/08/12 06:37:54;;;;;;;6.28;2.88;;;17.80;43.60;;;;;;5148033;27;20244;-86
2022/08/12 06:42:46;;;;;;;6.38;2.70;;;17.90;41.50;;;;;;5152650;27;20201;-86
2022/08/12 06:43:07;;;;;;;5.78;3.00;;;17.80;41.80;;;;;;5141389;27;20218;-87
2022/08/12 06:45:43;;;;;;;4.75;3.30;;;17.90;44.20;;;;;;5143930;27;20338;-86
2022/08/12 06:48:11;;;;;;;4.90;3.00;;;18.00;41.00;;;;;;5140923;27;20671;-87
2022/08/12 06:50:39;;;;;;;6.45;2.85;;;18.10;40.60;;;;;;5143882;27;20680;-86
2022/08/12 06:53:08;;;;;;;4.22;2.80;;;18.10;41.40;;;;;;5134395;27;20209;-86
2022/08/12 06:55:35;;;;;;;5.30;2.85;;;18.20;39.00;;;;;;5144422;27;20262;-87
2022/08/12 06:58:03;;;;;;;3.25;2.60;;;18.30;39.10;;;;;;5140286;27;20662;-86
2022/08/12 07:00:32;;;;;;;22.25;19.25;;;18.40;36.50;;;;;;5143898;27;20567;-87
2022/08/12 07:03:00;;;;;;;7.13;2.95;;;18.50;38.50;;;;;;5126346;27;20211;-86
2022/08/12 07:05:28;;;;;;;4.53;3.20;;;18.60;35.60;;;;;;5139900;27;20219;-86
2022/08/12 07:08:08;;;;;;;38.47;33.53;;;18.70;34.40;;;;;;5137610;27;20191;-86
2022/08/12 07:10:40;;;;;;;21.27;17.23;;;18.90;35.40;;;;;;5137985;27;20601;-87
2022/08/12 07:13:08;;;;;;;5.57;3.17;;;19.00;35.60;;;;;;5136255;27;20203;-86
2022/08/12 07:15:35;;;;;;;6.93;3.15;;;19.10;34.00;;;;;;5134430;27;20203;-87
2022/08/12 07:18:06;;;;;;;8.50;2.80;;;19.20;34.70;;;;;;5142724;27;20286;-87
2022/08/12 07:20:34;;;;;;;5.45;2.88;;;19.20;33.90;;;;;;5128604;27;20203;-87
2022/08/12 07:23:04;;;;;;;6.15;3.80;;;19.20;34.30;;;;;;5135060;27;20208;-86
2022/08/12 07:25:34;;;;;;;4.93;3.10;;;19.30;34.50;;;;;;5130847;27;20302;-87
2022/08/12 07:28:02;;;;;;;5.80;3.33;;;19.30;36.40;;;;;;5135977;27;20215;-87
2022/08/12 07:30:31;;;;;;;5.68;3.20;;;19.30;34.80;;;;;;5133824;27;20198;-86
2022/08/12 07:33:00;;;;;;;6.07;2.88;;;19.50;34.70;;;;;;5138393;27;20226;-86
2022/08/12 07:35:33;;;;;;;5.53;3.05;;;19.50;32.30;;;;;;5136554;27;20206;-86
2022/08/12 07:38:01;;;;;;;4.18;2.88;;;19.60;35.40;;;;;;5137922;27;20593;-86
2022/08/12 07:40:29;;;;;;;6.30;3.05;;;19.60;35.60;;;;;;5137204;27;20196;-86
2022/08/12 07:42:58;;;;;;;5.15;3.03;;;19.60;31.70;;;;;;5133395;27;20206;-86
2022/08/12 07:45:25;;;;;;;6.22;2.90;;;19.70;31.80;;;;;;5132452;27;20241;-86
2022/08/12 07:47:52;;;;;;;7.80;2.90;;;19.80;33.40;;;;;;5138090;27;20274;-86
2022/08/12 07:50:20;;;;;;;6.03;2.92;;;19.90;32.00;;;;;;5136824;27;20225;-86
2022/08/12 07:52:48;;;;;;;4.75;2.92;;;19.90;32.00;;;;;;5137032;27;20218;-86
2022/08/12 07:55:19;;;;;;;6.45;2.60;;;20.00;30.30;;;;;;5137259;27;20195;-86
2022/08/12 07:57:56;;;;;;;40.65;34.75;;;20.10;31.00;;;;;;5142757;27;20202;-86
2022/08/12 08:00:26;;;;;;;6.57;3.38;;;20.20;30.10;;;;;;5132630;27;20192;-86
2022/08/12 08:02:53;;;;;;;7.03;3.17;;;20.20;30.10;;;;;;5132818;27;20335;-86
2022/08/12 08:05:32;;;;;;;3.15;2.70;;;20.40;30.20;;;;;;5135143;27;20204;-86
2022/08/12 08:08:01;;;;;;;8.48;3.05;;;20.50;28.50;;;;;;5119304;27;20196;-86
2022/08/12 08:10:29;;;;;;;3.83;2.53;;;20.40;28.60;;;;;;5126859;27;20248;-86
2022/08/12 08:12:57;;;;;;;7.85;5.10;;;20.50;29.30;;;;;;5130533;27;20203;-86
2022/08/12 08:15:29;;;;;;;5.60;3.05;;;20.50;29.40;;;;;;5136527;27;20234;-86
2022/08/12 08:18:01;;;;;;;6.47;5.20;;;20.70;27.40;;;;;;5134887;27;20235;-86
2022/08/12 08:20:29;;;;;;;3.53;2.70;;;20.90;26.20;;;;;;5133887;27;20209;-86
2022/08/12 08:22:59;;;;;;;6.85;2.40;;;21.10;25.60;;;;;;5132318;27;20205;-86
2022/08/12 08:25:32;;;;;;;4.90;2.03;;;21.20;24.40;;;;;;5135188;27;20230;-86
2022/08/12 08:28:01;;;;;;;6.20;2.60;;;21.30;24.10;;;;;;5135331;27;20206;-86
2022/08/12 08:30:48;;;;;;;3.55;2.33;;;21.30;24.90;;;;;;5137673;27;20575;-84
2022/08/12 08:33:16;;;;;;;5.18;2.67;;;21.40;24.50;;;;;;5144614;27;20194;-84
2022/08/12 08:35:43;;;;;;;5.47;2.40;;;21.50;24.20;;;;;;5140137;27;20553;-84
2022/08/12 08:38:12;;;;;;;7.78;2.50;;;21.50;24.20;;;;;;5135980;27;20199;-84
2022/08/12 08:43:30;;;;;;;4.85;2.63;;;21.80;23.60;;;;;;5133356;27;20226;-84
2022/08/12 08:46:09;;;;;;;5.28;3.90;;;22.10;22.00;;;;;;5135861;27;20318;-84
2022/08/12 08:48:36;;;;;;;8.55;3.90;;;22.20;22.40;;;;;;5138555;27;20206;-84
2022/08/12 08:51:07;;;;;;;42.42;36.80;;;22.30;23.20;;;;;;5136314;27;20199;-84
2022/08/12 08:53:34;;;;;;;4.00;2.53;;;22.40;22.20;;;;;;5137476;27;20209;-84
2022/08/12 08:56:01;;;;;;;6.05;3.30;;;22.50;22.40;;;;;;5135070;27;20202;-84
2022/08/12 08:58:28;;;;;;;7.22;2.80;;;22.60;21.20;;;;;;5129068;27;20263;-84
2022/08/12 09:00:55;;;;;;;5.65;2.33;;;22.70;20.70;;;;;;5135880;27;20617;-84
2022/08/12 09:03:23;;;;;;;3.30;2.10;;;22.90;19.80;;;;;;5134542;27;20572;-85
2022/08/12 09:05:52;;;;;;;3.15;2.80;;;23.10;19.10;;;;;;5133052;27;20233;-84
2022/08/12 09:08:18;;;;;;;20.63;16.42;;;23.60;18.10;;;;;;5133188;27;20222;-85
2022/08/12 09:10:46;;;;;;;9.60;2.35;;;23.80;18.30;;;;;;5133350;27;20211;-85
2022/08/12 09:13:26;;;;;;;4.30;2.42;;;24.30;17.30;;;;;;5136818;27;20281;-82
2022/08/12 09:15:56;;;;;;;6.80;5.47;;;24.70;15.70;;;;;;5145270;27;20302;-84
2022/08/12 09:18:26;;;;;;;4.15;2.20;;;25.80;14.80;;;;;;5125088;27;20653;-84
2022/08/12 09:20:53;;;;;;;5.25;3.00;;;26.90;13.80;;;;;;5123618;27;20199;-84
2022/08/12 09:23:19;;;;;;;6.05;3.00;;;28.40;11.40;;;;;;5129832;27;20209;-85
2022/08/12 09:25:48;;;;;;;4.80;2.50;;;29.80;9.10;;;;;;5134014;27;20217;-85
2022/08/12 09:28:15;;;;;;;3.88;2.17;;;30.10;7.10;;;;;;5133530;27;20230;-86
2022/08/12 09:30:46;;;;;;;3.28;2.45;;;30.30;5.80;;;;;;5133962;27;20204;-85
2022/08/12 09:33:12;;;;;;;5.15;2.65;;;29.70;6.90;;;;;;5133791;27;20198;-85
2022/08/12 09:35:43;;;;;;;7.13;2.60;;;29.70;7.60;;;;;;5120849;27;20209;-84
2022/08/12 09:38:19;;;;;;;4.75;2.38;;;29.70;6.90;;;;;;5135002;27;20191;-84
2022/08/12 09:40:46;;;;;;;2.83;2.13;;;29.60;6.80;;;;;;5130586;27;20199;-84
2022/08/12 09:46:01;;;;;;;5.35;2.10;;;28.10;8.80;;;;;;5132116;27;20256;-83
2022/08/12 09:48:29;;;;;;;7.03;2.30;;;28.30;8.30;;;;;;5131191;28;20195;-83
2022/08/12 09:51:06;;;;;;;5.45;2.20;;;27.90;9.30;;;;;;5119618;27;20202;-83
2022/08/12 09:53:33;;;;;;;2.38;2.17;;;28.00;9.40;;;;;;5126799;27;20281;-84
2022/08/12 09:56:02;;;;;;;4.22;2.40;;;27.50;9.50;;;;;;5125509;27;20198;-84
2022/08/12 09:58:29;;;;;;;2.92;2.10;;;26.90;11.40;;;;;;5138579;27;20830;-84
2022/08/12 10:01:00;;;;;;;4.68;2.45;;;26.60;11.60;;;;;;5139530;27;20218;-84
2022/08/12 10:03:30;;;;;;;4.68;2.38;;;25.70;14.50;;;;;;5137442;27;20267;-84
2022/08/12 10:06:05;;;;;;;3.05;2.08;;;25.40;14.40;;;;;;5137250;27;20273;-84
2022/08/12 10:08:34;;;;;;;3.67;2.22;;;25.50;14.40;;;;;;5139725;27;20195;-84
2022/08/12 10:13:48;;;;;;;4.03;2.05;;;26.00;13.30;;;;;;5134325;27;20206;-84
2022/08/12 10:16:17;;;;;;;4.60;2.25;;;26.10;12.60;;;;;;5139033;27;20214;-84
2022/08/12 10:18:46;;;;;;;3.95;2.20;;;26.40;11.90;;;;;;5139676;27;20364;-84
2022/08/12 10:21:16;;;;;;;2.60;2.17;;;26.40;12.40;;;;;;5154718;27;20594;-84
2022/08/12 10:23:45;;;;;;;4.25;1.90;;;26.40;12.70;;;;;;5135543;27;20502;-84
2022/08/12 10:31:45;;;;;;;3.72;2.65;;;26.30;14.80;;;;;;5127153;27;20210;-84
2022/08/12 10:34:13;;;;;;;2.95;2.40;;;26.60;12.80;;;;;;5128853;27;20195;-84
2022/08/12 10:36:42;;;;;;;7.30;2.33;;;26.50;12.70;;;;;;5132495;27;20266;-85
2022/08/12 10:39:11;;;;;;;5.50;2.50;;;26.20;13.80;;;;;;5129772;27;20194;-84
2022/08/12 10:44:29;;;;;;;4.90;2.30;;;26.50;13.80;;;;;;5124269;27;20580;-86
2022/08/12 10:46:56;;;;;;;2.35;2.10;;;26.90;13.60;;;;;;5123009;27;20758;-84
2022/08/12 10:49:27;;;;;;;4.68;2.40;;;27.70;10.80;;;;;;5127467;27;20226;-84
2022/08/12 10:51:55;;;;;;;4.15;2.40;;;28.20;10.10;;;;;;5121834;27;20202;-85
2022/08/12 10:54:22;;;;;;;3.10;2.17;;;28.20;11.00;;;;;;5127579;27;20201;-85
2022/08/12 10:56:50;;;;;;;4.38;2.30;;;28.60;9.30;;;;;;5121859;27;20203;-85
2022/08/12 10:59:20;;;;;;;4.30;2.60;;;29.60;7.50;;;;;;5134295;27;20195;-85
2022/08/12 11:01:48;;;;;;;3.95;2.20;;;29.60;9.10;;;;;;5122395;27;20714;-85
2022/08/12 11:04:15;;;;;;;4.32;3.10;;;28.70;9.70;;;;;;5125115;27;20206;-85
2022/08/12 11:06:46;;;;;;;3.28;2.45;;;28.60;10.60;;;;;;5125461;27;20246;-85
2022/08/12 11:09:16;;;;;;;6.45;2.33;;;28.90;9.20;;;;;;5124503;27;20195;-85
2022/08/12 11:11:44;;;;;;;4.07;2.13;;;28.40;8.80;;;;;;5134734;27;20236;-85
2022/08/12 11:14:11;;;;;;;3.45;2.20;;;28.40;9.10;;;;;;5141620;27;20205;-85
2022/08/12 11:16:44;;;;;;;3.92;2.00;;;28.00;9.70;;;;;;5146400;27;20293;-85
2022/08/12 11:19:11;;;;;;;5.13;2.55;;;27.90;10.60;;;;;;5128619;27;20206;-84
2022/08/12 11:21:38;;;;;;;3.65;2.22;;;27.60;9.70;;;;;;5146189;27;20683;-84
2022/08/12 11:24:05;;;;;;;3.10;2.50;;;26.90;11.40;;;;;;5149886;27;20202;-84
2022/08/12 11:26:33;;;;;;;6.93;2.50;;;26.60;11.50;;;;;;5152395;27;20217;-84
2022/08/12 11:29:01;;;;;;;4.80;2.10;;;26.40;12.70;;;;;;5149751;27;20213;-84
2022/08/12 11:31:28;;;;;;;2.63;1.85;;;26.50;11.40;;;;;;5145256;27;20702;-81
2022/08/12 11:33:55;;;;;;;3.10;1.90;;;26.50;12.20;;;;;;5122820;27;20274;-81
2022/08/12 11:36:22;;;;;;;4.78;2.10;;;26.70;12.00;;;;;;5119411;27;20202;-82
2022/08/12 11:38:49;;;;;;;4.88;1.90;;;26.60;12.60;;;;;;5131420;27;20619;-82
2022/08/12 11:41:15;;;;;;;3.53;2.33;;;26.80;12.40;;;;;;5129621;27;20199;-82
2022/08/12 11:43:44;;;;;;;2.72;2.17;;;26.60;11.90;;;;;;5132295;27;20257;-81
2022/08/12 11:46:10;;;;;;;6.18;2.00;;;26.00;13.40;;;;;;5140033;27;20290;-82
2022/08/12 11:48:39;;;;;;;5.10;2.10;;;25.10;14.20;;;;;;5142021;27;20195;-82
2022/08/12 11:51:07;;;;;;;4.70;2.20;;;24.60;13.90;;;;;;5138535;27;20633;-84
2022/08/12 11:53:38;;;;;;;7.93;4.43;;;24.40;14.40;;;;;;5134919;27;20197;-85
2022/08/12 11:56:06;;;;;;;3.90;2.13;;;24.60;15.20;;;;;;5134812;27;20195;-85
2022/08/12 11:58:34;;;;;;;11.02;8.48;;;24.90;14.10;;;;;;5135133;27;20195;-84
2022/08/12 12:01:03;;;;;;;8.30;2.00;;;24.80;15.20;;;;;;5134850;27;20195;-85
2022/08/12 12:03:29;;;;;;;4.80;1.77;;;25.00;14.20;;;;;;5134755;27;20424;-85
2022/08/12 12:05:56;;;;;;;2.40;1.90;;;25.30;14.30;;;;;;5133543;27;20262;-84
2022/08/12 12:08:25;;;;;;;3.45;1.80;;;25.20;14.30;;;;;;5123760;27;20199;-85
2022/08/12 12:10:53;;;;;;;5.32;1.80;;;25.10;12.90;;;;;;5122270;27;20562;-84
2022/08/12 12:13:20;;;;;;;4.28;2.03;;;24.90;14.10;;;;;;5132621;27;20195;-84
2022/08/12 12:15:48;;;;;;;2.00;1.80;;;25.30;14.00;;;;;;5140255;27;20213;-84
2022/08/12 12:18:29;;;;;;;2.10;1.88;;;25.50;12.80;;;;;;5147224;27;20209;-85
2022/08/12 12:20:57;;;;;;;4.78;1.98;;;25.70;12.20;;;;;;5147291;27;20209;-84
2022/08/12 12:23:24;;;;;;;2.53;1.73;;;25.90;12.50;;;;;;5145950;27;20200;-84
2022/08/12 12:25:51;;;;;;;2.25;1.50;;;25.90;12.40;;;;;;5145503;27;20220;-85
2022/08/12 12:28:18;;;;;;;2.65;1.90;;;25.90;11.90;;;;;;5145884;27;20564;-84
2022/08/12 12:30:45;;;;;;;4.40;1.80;;;25.90;12.30;;;;;;5141061;27;20596;-84
2022/08/12 12:33:13;;;;;;;3.03;1.50;;;26.10;12.20;;;;;;5146847;27;20202;-85
2022/08/12 12:35:41;;;;;;;2.63;1.88;;;26.00;11.60;;;;;;5142376;27;20202;-81
2022/08/12 12:38:10;;;;;;;2.63;1.77;;;26.10;11.10;;;;;;5151425;27;20203;-81
2022/08/12 12:40:38;;;;;;;2.88;1.90;;;25.90;11.90;;;;;;5149019;27;20205;-81
2022/08/12 12:43:05;;;;;;;3.45;1.60;;;26.00;12.30;;;;;;5128743;27;20660;-81
2022/08/12 12:45:39;;;;;;;2.38;1.70;;;26.10;12.50;;;;;;5139032;27;20639;-81
2022/08/12 12:48:07;;;;;;;2.13;1.70;;;25.90;12.40;;;;;;5139072;27;20203;-82
2022/08/12 12:50:36;;;;;;;2.58;1.40;;;25.40;12.90;;;;;;5135350;27;20202;-84
2022/08/12 12:53:11;;;;;;;1.60;1.50;;;25.10;12.70;;;;;;5138474;27;20601;-83
2022/08/12 12:55:38;;;;;;;3.58;1.48;;;25.10;11.90;;;;;;5138291;27;20507;-83
2022/08/12 12:58:08;;;;;;;3.47;1.50;;;25.30;11.50;;;;;;5130158;27;20199;-84
2022/08/12 13:00:39;;;;;;;3.60;1.60;;;25.60;12.00;;;;;;5136512;27;20206;-82
2022/08/12 13:03:06;;;;;;;3.83;1.88;;;26.00;11.40;;;;;;5131179;27;20298;-82
2022/08/12 13:05:35;;;;;;;3.75;1.90;;;26.00;11.20;;;;;;5125979;27;20196;-82
2022/08/12 13:08:04;;;;;;;2.30;1.75;;;26.10;11.50;;;;;;5133736;27;20195;-82
2022/08/12 13:10:32;;;;;;;4.47;1.55;;;26.50;10.70;;;;;;5136816;27;20198;-82
2022/08/12 13:13:01;;;;;;;2.72;1.60;;;26.30;10.20;;;;;;5140452;27;20278;-82
2022/08/12 13:15:27;;;;;;;3.40;1.52;;;25.60;11.40;;;;;;5140953;27;20248;-82
2022/08/12 13:17:55;;;;;;;4.28;1.50;;;25.30;11.40;;;;;;5134880;27;20299;-84
2022/08/12 13:20:23;;;;;;;1.48;1.38;;;24.80;12.10;;;;;;5125899;28;20252;-85
2022/08/12 13:22:50;;;;;;;1.60;1.50;;;24.60;12.50;;;;;;5143179;27;20206;-84
2022/08/12 13:25:18;;;;;;;2.10;1.70;;;24.60;13.80;;;;;;5135303;27;20195;-84
2022/08/12 13:27:48;;;;;;;2.33;1.50;;;24.80;14.10;;;;;;5126506;27;20624;-84
2022/08/12 13:30:16;;;;;;;2.72;1.67;;;24.90;13.20;;;;;;5151963;27;20572;-85
2022/08/12 13:32:49;;;;;;;3.70;1.50;;;25.10;12.50;;;;;;5157076;27;20206;-85
2022/08/12 13:35:16;;;;;;;1.67;1.30;;;25.30;11.40;;;;;;5153069;27;20219;-84
2022/08/12 13:37:46;;;;;;;5.28;1.40;;;25.30;11.80;;;;;;5155855;27;20190;-84
2022/08/12 13:40:13;;;;;;;1.67;1.20;;;25.20;11.80;;;;;;5141991;27;20203;-85
2022/08/12 13:42:40;;;;;;;3.00;1.30;;;25.00;11.60;;;;;;5150128;27;20195;-84
2022/08/12 13:45:10;;;;;;;2.17;1.58;;;24.80;13.10;;;;;;5150249;27;20222;-84
2022/08/12 13:47:58;;;;;;;1.88;1.20;;;24.90;11.70;;;;;;5147904;27;20214;-84
2022/08/12 13:50:28;;;;;;;2.42;1.30;;;25.00;12.30;;;;;;5138653;27;20203;-84
2022/08/12 13:52:54;;;;;;;2.75;1.48;;;25.10;11.50;;;;;;5144058;27;20263;-84
2022/08/12 13:55:24;;;;;;;2.95;1.20;;;25.20;11.20;;;;;;5142160;27;20199;-85
2022/08/12 13:57:52;;;;;;;1.25;1.17;;;25.30;11.30;;;;;;5134996;27;20203;-85
2022/08/12 14:00:21;;;;;;;1.95;1.30;;;25.50;11.10;;;;;;5143506;27;20203;-84
2022/08/12 14:02:48;;;;;;;2.92;1.20;;;25.50;12.20;;;;;;5140218;27;20211;-84
2022/08/12 14:05:16;;;;;;;1.80;1.20;;;25.60;10.90;;;;;;5139689;27;20223;-83
2022/08/12 14:07:54;;;;;;;1.55;1.20;;;25.50;10.50;;;;;;5146232;27;20230;-85
2022/08/12 14:10:37;;;;;;;2.50;1.20;;;25.60;10.90;;;;;;5140772;27;20196;-84
2022/08/12 14:13:16;;;;;;;2.20;1.30;;;25.50;10.60;;;;;;5146262;27;20207;-84
2022/08/12 14:15:47;;;;;;;3.40;1.20;;;25.10;11.60;;;;;;5131385;27;20207;-84
2022/08/12 14:18:15;;;;;;;4.25;1.30;;;25.00;11.80;;;;;;5139063;27;20223;-84
2022/08/12 14:20:43;;;;;;;2.65;1.40;;;25.10;11.30;;;;;;5138763;27;20206;-84
2022/08/12 14:23:14;;;;;;;2.25;1.50;;;25.20;11.30;;;;;;5138979;27;20233;-84
2022/08/12 14:25:42;;;;;;;2.67;1.10;;;25.30;11.40;;;;;;5138202;27;20552;-85
2022/08/12 14:28:15;;;;;;;2.25;1.27;;;25.20;11.70;;;;;;5138833;27;20692;-85
2022/08/12 14:30:45;;;;;;;1.85;1.38;;;25.30;11.70;;;;;;5137317;27;20238;-85
2022/08/12 14:33:14;;;;;;;3.40;1.35;;;25.30;11.80;;;;;;5148223;27;20206;-85
2022/08/12 14:35:44;;;;;;;1.30;1.20;;;25.00;11.90;;;;;;5150533;27;20191;-85
2022/08/12 14:38:19;;;;;;;2.53;1.40;;;25.10;11.30;;;;;;5144444;27;20205;-85
2022/08/12 14:40:47;;;;;;;1.20;1.10;;;25.10;11.50;;;;;;5134400;27;20271;-85
2022/08/12 14:43:14;;;;;;;1.00;1.00;;;25.20;11.40;;;;;;5137384;27;20202;-85
2022/08/12 14:45:42;;;;;;;1.98;1.05;;;25.10;11.00;;;;;;5134071;27;20278;-85